Time;durP1;ratioP1;P1;durP2;ratioP2;P2;SDS_P1;SDS_P2;PMS_P1;PMS_P2;Temp;Humidity;BMP_temperature;BMP_pressure;BME280_temperature;BME280_humidity;BME280_pressure;Samples;Min_cycle;Max_cycle;Signal;HPM_P1;HPM_P2
2023/07/15 00:01:04;;;;;;;2.45;2.25;;;24.50;80.00;;;;;;4984176;28;20564;-80
2023/07/15 00:03:33;;;;;;;3.65;2.00;;;24.40;79.90;;;;;;4989823;28;20223;-79
2023/07/15 00:06:00;;;;;;;2.42;2.15;;;24.50;79.90;;;;;;4994659;28;20204;-79
2023/07/15 00:08:30;;;;;;;2.85;2.10;;;24.50;79.80;;;;;;5000461;28;20223;-79
2023/07/15 00:10:57;;;;;;;3.28;2.28;;;24.40;80.00;;;;;;5011730;28;20192;-79
2023/07/15 00:13:25;;;;;;;2.92;1.95;;;24.40;80.50;;;;;;4997443;28;20196;-80
2023/07/15 00:15:54;;;;;;;2.92;2.00;;;24.40;80.00;;;;;;5002599;28;20208;-79
2023/07/15 00:18:22;;;;;;;2.60;1.95;;;24.50;79.80;;;;;;4994156;28;20220;-79
2023/07/15 00:20:51;;;;;;;2.70;2.30;;;24.50;80.00;;;;;;4973808;28;20196;-79
2023/07/15 00:23:21;;;;;;;3.35;2.08;;;24.40;80.30;;;;;;4995103;28;20559;-79
2023/07/15 00:25:50;;;;;;;3.78;2.00;;;24.40;80.30;;;;;;4980332;28;20196;-79
2023/07/15 00:28:18;;;;;;;2.97;1.90;;;24.40;79.90;;;;;;4995533;28;20220;-79
2023/07/15 00:30:45;;;;;;;2.10;1.90;;;24.40;80.40;;;;;;4974965;28;20205;-79
2023/07/15 00:33:15;;;;;;;2.35;2.08;;;24.50;79.80;;;;;;4989006;28;20557;-79
2023/07/15 00:35:45;;;;;;;2.70;2.38;;;24.60;79.00;;;;;;4990804;28;20586;-79
2023/07/15 00:38:14;;;;;;;3.75;2.00;;;24.60;79.10;;;;;;4990191;28;20204;-79
2023/07/15 00:40:44;;;;;;;2.60;1.85;;;24.50;79.20;;;;;;4991941;28;20215;-79
2023/07/15 00:43:49;;;;;;;2.63;2.13;;;24.50;79.30;;;;;;5006663;28;20212;-79
2023/07/15 00:46:31;;;;;;;2.92;2.17;;;24.50;79.40;;;;;;4993819;28;20203;-79
2023/07/15 00:49:04;;;;;;;1.90;1.80;;;24.50;79.30;;;;;;4986796;28;20706;-80
2023/07/15 00:51:38;;;;;;;3.20;2.13;;;24.40;79.60;;;;;;5007564;28;20200;-79
2023/07/15 00:54:09;;;;;;;2.58;2.00;;;24.50;79.60;;;;;;4989068;28;20196;-79
2023/07/15 00:56:39;;;;;;;3.65;2.28;;;24.40;80.30;;;;;;5000754;28;20197;-80
2023/07/15 00:59:09;;;;;;;2.13;1.92;;;24.40;79.90;;;;;;4986245;28;20698;-80
2023/07/15 01:01:38;;;;;;;2.95;2.25;;;24.40;79.90;;;;;;4986235;28;20204;-79
2023/07/15 01:04:06;;;;;;;2.90;2.22;;;24.40;79.60;;;;;;4990585;28;20599;-79
2023/07/15 01:06:35;;;;;;;2.85;1.98;;;24.40;79.60;;;;;;4990159;28;20289;-79
2023/07/15 01:09:07;;;;;;;2.10;1.90;;;24.50;79.50;;;;;;4989473;28;20220;-79
2023/07/15 01:11:35;;;;;;;4.50;2.20;;;24.50;79.50;;;;;;4989133;28;20203;-79
2023/07/15 01:14:02;;;;;;;2.22;1.98;;;24.50;79.10;;;;;;4987261;28;20205;-79
2023/07/15 01:16:29;;;;;;;1.80;1.70;;;24.50;78.40;;;;;;4988712;28;20205;-80
2023/07/15 01:18:58;;;;;;;4.63;2.10;;;24.70;77.70;;;;;;4989345;28;20231;-79
2023/07/15 01:21:27;;;;;;;2.35;1.95;;;24.70;77.80;;;;;;4989877;28;20210;-79
2023/07/15 01:23:56;;;;;;;2.65;2.00;;;24.70;78.30;;;;;;4989561;28;20209;-80
2023/07/15 01:26:24;;;;;;;2.05;1.52;;;24.60;78.70;;;;;;4990750;28;20192;-79
2023/07/15 01:28:52;;;;;;;2.38;2.10;;;24.50;78.90;;;;;;4990343;28;20224;-79
2023/07/15 01:31:20;;;;;;;2.88;2.22;;;24.50;78.80;;;;;;4985409;28;20204;-80
2023/07/15 01:33:48;;;;;;;2.58;2.38;;;24.50;79.00;;;;;;4971800;28;20196;-79
2023/07/15 01:36:16;;;;;;;3.20;1.92;;;24.40;79.30;;;;;;5005801;28;20207;-79
2023/07/15 01:38:43;;;;;;;3.15;2.10;;;24.40;79.50;;;;;;4988548;28;20239;-79
2023/07/15 01:41:12;;;;;;;2.13;1.92;;;24.30;79.70;;;;;;5004028;28;20224;-79
2023/07/15 01:43:39;;;;;;;4.63;2.10;;;24.30;80.00;;;;;;4972491;28;20217;-79
2023/07/15 01:46:07;;;;;;;2.13;1.92;;;24.30;80.00;;;;;;4989582;28;20235;-79
2023/07/15 01:48:34;;;;;;;2.97;2.05;;;24.30;80.60;;;;;;4986869;28;20223;-79
2023/07/15 01:51:02;;;;;;;1.92;1.73;;;24.30;79.90;;;;;;4989478;28;20220;-79
2023/07/15 01:53:29;;;;;;;2.40;2.00;;;24.30;79.90;;;;;;4989084;28;20539;-79
2023/07/15 01:55:56;;;;;;;2.95;1.90;;;24.30;80.20;;;;;;4992246;28;20192;-79
2023/07/15 01:58:28;;;;;;;3.05;2.30;;;24.30;80.50;;;;;;4989569;28;20593;-79
2023/07/15 02:00:55;;;;;;;4.45;2.17;;;24.20;80.60;;;;;;4988117;28;20208;-79
2023/07/15 02:03:23;;;;;;;2.00;1.77;;;24.20;80.80;;;;;;4992691;28;20208;-79
2023/07/15 02:05:51;;;;;;;2.53;2.20;;;24.10;81.00;;;;;;4992979;28;20204;-79
2023/07/15 02:08:22;;;;;;;3.03;1.90;;;24.10;81.20;;;;;;4971760;28;20224;-79
2023/07/15 02:10:50;;;;;;;2.17;1.83;;;24.10;81.40;;;;;;4974189;28;20205;-79
2023/07/15 02:13:17;;;;;;;3.28;1.80;;;24.00;82.00;;;;;;4992863;28;20207;-79
2023/07/15 02:15:46;;;;;;;4.53;2.60;;;24.00;81.90;;;;;;4989077;28;20205;-79
2023/07/15 02:18:14;;;;;;;2.15;1.80;;;24.00;82.40;;;;;;4989288;28;20203;-79
2023/07/15 02:20:41;;;;;;;2.97;2.10;;;23.90;82.40;;;;;;5004139;28;20577;-79
2023/07/15 02:23:11;;;;;;;3.75;2.28;;;23.90;82.50;;;;;;4987039;28;20203;-80
2023/07/15 02:25:38;;;;;;;2.65;1.90;;;23.90;83.00;;;;;;4988217;28;20553;-79
2023/07/15 02:28:07;;;;;;;3.60;2.25;;;23.90;82.90;;;;;;4984966;28;20204;-79
2023/07/15 02:30:36;;;;;;;1.98;1.80;;;23.90;83.90;;;;;;4984338;28;20212;-79
2023/07/15 02:33:06;;;;;;;4.28;2.22;;;23.80;83.50;;;;;;4987162;28;20211;-79
2023/07/15 02:35:34;;;;;;;2.38;1.67;;;23.80;83.60;;;;;;4989772;28;20201;-79
2023/07/15 02:38:02;;;;;;;2.20;1.98;;;23.80;84.40;;;;;;4969061;28;20208;-79
2023/07/15 02:40:29;;;;;;;2.22;1.92;;;23.70;84.10;;;;;;4988639;28;20209;-79
2023/07/15 02:42:57;;;;;;;5.25;2.10;;;23.70;84.10;;;;;;4989364;28;20204;-79
2023/07/15 02:45:26;;;;;;;2.15;1.95;;;23.70;84.40;;;;;;5005564;28;20212;-79
2023/07/15 02:47:53;;;;;;;4.38;2.08;;;23.80;84.00;;;;;;4988343;28;20217;-79
2023/07/15 02:50:22;;;;;;;3.15;2.22;;;23.80;83.80;;;;;;4988325;28;20223;-79
2023/07/15 02:52:50;;;;;;;2.65;1.92;;;23.80;83.80;;;;;;4993798;28;20199;-79
2023/07/15 02:55:17;;;;;;;3.38;2.00;;;23.80;83.90;;;;;;4977313;28;20200;-79
2023/07/15 02:57:45;;;;;;;2.30;1.90;;;23.80;83.70;;;;;;4990144;28;20201;-79
2023/07/15 03:00:15;;;;;;;2.10;1.90;;;23.80;83.80;;;;;;4992396;28;20223;-79
2023/07/15 03:02:47;;;;;;;3.45;2.30;;;23.70;83.80;;;;;;4991627;28;20571;-79
2023/07/15 03:05:15;;;;;;;4.07;2.00;;;23.70;83.90;;;;;;5000576;28;20216;-79
2023/07/15 03:07:45;;;;;;;3.08;1.73;;;23.70;83.90;;;;;;4994044;28;20208;-79
2023/07/15 03:10:13;;;;;;;2.03;1.83;;;23.70;83.90;;;;;;4990293;28;20227;-79
2023/07/15 03:12:42;;;;;;;2.65;2.03;;;23.60;84.10;;;;;;4990636;28;20215;-79
2023/07/15 03:15:10;;;;;;;2.92;2.10;;;23.60;83.90;;;;;;4995953;28;20207;-79
2023/07/15 03:17:38;;;;;;;2.25;2.03;;;23.60;83.90;;;;;;4992259;28;20204;-79
2023/07/15 03:20:14;;;;;;;2.65;2.05;;;23.60;84.10;;;;;;4990896;28;20231;-79
2023/07/15 03:22:43;;;;;;;3.38;1.80;;;23.60;84.10;;;;;;4996048;28;20288;-79
2023/07/15 03:25:38;;;;;;;2.47;2.28;;;23.60;84.70;;;;;;4976111;28;20231;-79
2023/07/15 03:28:05;;;;;;;2.08;1.80;;;23.60;84.40;;;;;;4993835;28;20204;-79
2023/07/15 03:30:35;;;;;;;2.10;1.90;;;23.60;84.30;;;;;;4990462;28;20227;-79
2023/07/15 03:33:02;;;;;;;2.85;2.17;;;23.60;84.40;;;;;;4991369;28;20192;-79
2023/07/15 03:35:30;;;;;;;4.30;2.15;;;23.50;84.70;;;;;;5008797;28;20199;-79
2023/07/15 03:37:58;;;;;;;2.28;2.13;;;23.50;84.60;;;;;;4985577;28;20205;-79
2023/07/15 03:40:26;;;;;;;2.45;1.80;;;23.50;84.40;;;;;;4990520;28;20587;-79
2023/07/15 03:42:54;;;;;;;2.00;1.80;;;23.60;84.30;;;;;;4993188;28;20207;-79
2023/07/15 03:45:22;;;;;;;2.30;2.10;;;23.50;84.60;;;;;;5005983;23;20225;-83
2023/07/15 03:47:49;;;;;;;3.92;1.98;;;23.50;84.50;;;;;;4973369;28;20763;-83
2023/07/15 03:50:16;;;;;;;3.65;1.90;;;23.50;85.00;;;;;;4974609;28;20209;-83
2023/07/15 03:52:44;;;;;;;2.45;1.85;;;23.50;84.40;;;;;;4982154;28;20666;-83
2023/07/15 03:55:13;;;;;;;2.40;1.83;;;23.60;84.50;;;;;;4978558;28;20212;-83
2023/07/15 03:57:40;;;;;;;5.07;1.90;;;23.60;84.50;;;;;;4980754;28;20209;-83
2023/07/15 04:00:13;;;;;;;3.17;1.80;;;23.60;84.50;;;;;;4972448;28;20205;-83
2023/07/15 04:02:46;;;;;;;3.50;1.90;;;23.60;84.70;;;;;;4973877;28;20212;-83
2023/07/15 04:05:14;;;;;;;2.20;1.60;;;23.60;84.70;;;;;;4972143;28;20227;-83
2023/07/15 04:07:57;;;;;;;3.17;2.15;;;23.60;84.70;;;;;;4974374;28;20686;-83
2023/07/15 04:10:27;;;;;;;4.40;1.80;;;23.50;84.70;;;;;;4982747;28;20212;-82
2023/07/15 04:12:54;;;;;;;2.63;2.00;;;23.60;84.80;;;;;;4973821;28;20209;-83
2023/07/15 04:15:22;;;;;;;3.95;1.90;;;23.50;85.00;;;;;;4976665;28;20227;-83
2023/07/15 04:17:49;;;;;;;2.85;2.15;;;23.50;85.20;;;;;;4974681;28;20212;-83
2023/07/15 04:20:17;;;;;;;1.95;1.63;;;23.50;85.30;;;;;;4975168;28;20565;-83
2023/07/15 04:22:45;;;;;;;3.80;2.00;;;23.50;85.50;;;;;;4975342;28;20203;-83
2023/07/15 04:25:14;;;;;;;3.30;1.95;;;23.50;85.40;;;;;;4971219;28;20228;-83
2023/07/15 04:27:43;;;;;;;3.03;1.95;;;23.60;85.40;;;;;;4974330;28;20197;-83
2023/07/15 04:30:12;;;;;;;2.65;1.90;;;23.60;85.90;;;;;;4975556;28;20201;-83
2023/07/15 04:32:39;;;;;;;2.05;1.80;;;23.70;85.40;;;;;;4966556;28;20205;-83
2023/07/15 04:35:07;;;;;;;2.35;1.83;;;23.70;85.10;;;;;;4984760;28;20221;-83
2023/07/15 04:37:36;;;;;;;2.25;1.80;;;23.70;85.60;;;;;;4980020;28;20197;-83
2023/07/15 04:40:04;;;;;;;2.33;1.67;;;23.70;86.50;;;;;;4975458;28;20200;-83
2023/07/15 04:42:32;;;;;;;3.58;1.90;;;23.80;85.90;;;;;;4985836;28;20189;-83
2023/07/15 04:45:01;;;;;;;3.15;2.10;;;23.70;86.90;;;;;;4976803;28;20640;-83
2023/07/15 04:47:29;;;;;;;2.92;1.90;;;23.70;86.50;;;;;;4961555;28;20199;-83
2023/07/15 04:49:56;;;;;;;3.63;1.90;;;23.70;86.50;;;;;;4977997;28;20204;-83
2023/07/15 04:52:24;;;;;;;2.80;2.03;;;23.80;86.70;;;;;;4984052;28;20205;-83
2023/07/15 04:54:51;;;;;;;2.00;1.80;;;23.70;87.10;;;;;;4972616;28;20229;-83
2023/07/15 04:57:19;;;;;;;1.90;1.73;;;23.70;87.30;;;;;;4973700;28;20205;-83
2023/07/15 04:59:47;;;;;;;5.03;1.90;;;23.70;87.40;;;;;;4976468;28;20212;-83
2023/07/15 05:02:16;;;;;;;3.75;1.77;;;23.80;87.80;;;;;;4973843;28;20202;-83
2023/07/15 05:04:43;;;;;;;1.73;1.63;;;23.80;87.60;;;;;;4977993;28;20219;-83
2023/07/15 05:07:11;;;;;;;4.22;1.80;;;23.70;87.70;;;;;;4961760;28;20208;-83
2023/07/15 05:09:39;;;;;;;2.55;2.00;;;23.80;88.10;;;;;;4979622;28;20212;-82
2023/07/15 05:12:08;;;;;;;5.25;2.35;;;23.80;88.80;;;;;;4975337;28;20193;-84
2023/07/15 05:14:36;;;;;;;3.42;1.90;;;23.70;89.50;;;;;;4970394;28;20235;-82
2023/07/15 05:17:06;;;;;;;3.47;2.17;;;23.80;89.90;;;;;;4970221;28;20201;-82
2023/07/15 05:19:35;;;;;;;3.90;1.90;;;23.80;90.10;;;;;;4954605;28;20277;-83
2023/07/15 05:22:04;;;;;;;3.58;1.88;;;23.70;90.20;;;;;;4974143;28;20211;-81
2023/07/15 05:24:31;;;;;;;3.88;1.70;;;23.70;90.20;;;;;;4975607;28;20220;-80
2023/07/15 05:27:12;;;;;;;2.70;1.90;;;23.70;90.60;;;;;;4974216;28;20212;-83
2023/07/15 05:29:40;;;;;;;3.60;1.85;;;23.80;90.60;;;;;;4975952;28;20204;-82
2023/07/15 05:32:09;;;;;;;2.20;2.00;;;23.80;90.80;;;;;;4974924;28;20212;-82
2023/07/15 05:34:37;;;;;;;3.08;1.83;;;23.80;90.90;;;;;;4975347;28;20228;-82
2023/07/15 05:37:05;;;;;;;2.08;1.90;;;23.80;91.10;;;;;;4972604;28;20197;-83
2023/07/15 05:39:40;;;;;;;2.70;1.98;;;23.80;91.20;;;;;;4984277;28;20193;-83
2023/07/15 05:42:10;;;;;;;2.63;1.90;;;23.80;91.20;;;;;;4974602;28;20207;-83
2023/07/15 05:44:38;;;;;;;3.92;2.13;;;23.90;91.20;;;;;;4972774;28;20235;-83
2023/07/15 05:47:06;;;;;;;5.75;2.20;;;23.90;91.30;;;;;;4974349;28;20591;-82
2023/07/15 05:49:34;;;;;;;5.82;2.20;;;23.90;91.30;;;;;;4981389;28;20211;-83
2023/07/15 05:52:03;;;;;;;3.15;2.00;;;23.90;91.50;;;;;;4973560;28;20197;-84
2023/07/15 05:54:30;;;;;;;2.30;1.70;;;24.00;91.70;;;;;;4972722;28;20232;-82
2023/07/15 05:56:58;;;;;;;3.33;2.45;;;24.00;91.50;;;;;;4976557;28;20286;-84
2023/07/15 05:59:34;;;;;;;4.30;2.10;;;24.00;91.60;;;;;;4972581;28;20205;-82
2023/07/15 06:02:04;;;;;;;2.25;2.05;;;24.10;91.60;;;;;;4971286;28;20201;-83
2023/07/15 06:04:32;;;;;;;2.65;1.98;;;24.10;91.60;;;;;;4972539;28;20232;-82
2023/07/15 06:07:09;;;;;;;2.65;2.17;;;24.20;91.90;;;;;;4973360;28;20228;-84
2023/07/15 06:09:36;;;;;;;2.53;1.90;;;24.30;92.10;;;;;;4971846;28;20193;-82
2023/07/15 06:12:04;;;;;;;4.28;2.03;;;24.30;91.50;;;;;;4959711;28;20215;-83
2023/07/15 06:14:32;;;;;;;3.38;2.15;;;24.30;91.60;;;;;;4950432;28;20225;-83
2023/07/15 06:16:59;;;;;;;2.85;1.83;;;24.40;92.20;;;;;;4968986;28;20209;-83
2023/07/15 06:19:27;;;;;;;3.10;1.77;;;24.40;91.60;;;;;;4973482;28;20209;-83
2023/07/15 06:21:55;;;;;;;9.40;2.25;;;24.50;91.70;;;;;;4970637;28;20208;-83
2023/07/15 06:24:24;;;;;;;2.08;1.65;;;24.50;91.70;;;;;;4965841;28;20500;-83
2023/07/15 06:26:51;;;;;;;3.55;2.25;;;24.60;91.40;;;;;;4966352;28;20228;-82
2023/07/15 06:29:18;;;;;;;3.33;2.20;;;24.60;91.40;;;;;;4971167;28;20193;-83
2023/07/15 06:31:46;;;;;;;1.80;1.70;;;24.70;91.20;;;;;;4966591;28;20197;-84
2023/07/15 06:34:13;;;;;;;2.10;1.77;;;24.70;91.00;;;;;;4971792;28;20709;-83
2023/07/15 06:36:41;;;;;;;2.38;1.90;;;24.90;91.30;;;;;;4970165;28;20208;-81
2023/07/15 06:39:08;;;;;;;2.13;1.92;;;24.90;91.10;;;;;;4972460;28;20212;-83
2023/07/15 06:41:37;;;;;;;2.17;1.80;;;25.00;91.00;;;;;;4971543;28;20563;-83
2023/07/15 06:44:05;;;;;;;3.58;1.90;;;25.00;90.40;;;;;;4969680;28;20239;-84
2023/07/15 06:46:33;;;;;;;2.50;1.90;;;25.00;90.60;;;;;;4956313;28;20228;-84
2023/07/15 06:49:01;;;;;;;2.30;1.95;;;25.00;90.30;;;;;;4973452;28;20202;-84
2023/07/15 06:51:28;;;;;;;2.08;1.80;;;25.10;90.00;;;;;;4968396;28;20203;-84
2023/07/15 06:53:58;;;;;;;1.77;1.65;;;25.20;90.00;;;;;;4971814;28;20682;-83
2023/07/15 06:56:26;;;;;;;2.10;1.90;;;25.30;90.50;;;;;;4970178;28;20213;-82
2023/07/15 06:58:55;;;;;;;3.17;2.00;;;25.40;88.50;;;;;;4964999;28;20742;-81
2023/07/15 07:01:22;;;;;;;3.17;2.10;;;25.40;88.50;;;;;;4965144;28;20849;-81
2023/07/15 07:03:52;;;;;;;2.53;1.90;;;25.50;90.00;;;;;;4964557;28;20586;-81
2023/07/15 07:06:20;;;;;;;2.75;1.77;;;25.50;90.00;;;;;;4967310;28;20229;-80
2023/07/15 07:08:48;;;;;;;2.35;1.83;;;25.50;89.10;;;;;;4974179;28;20200;-80
2023/07/15 07:11:16;;;;;;;2.80;1.92;;;25.60;88.70;;;;;;4971413;28;20197;-79
2023/07/15 07:13:43;;;;;;;1.88;1.77;;;25.60;89.00;;;;;;4972783;28;20211;-81
2023/07/15 07:16:12;;;;;;;2.55;2.03;;;25.60;88.50;;;;;;4953084;29;20202;-80
2023/07/15 07:18:40;;;;;;;2.35;1.60;;;25.80;88.20;;;;;;4954749;29;20213;-81
2023/07/15 07:21:07;;;;;;;2.35;1.50;;;25.80;87.30;;;;;;4955380;29;20201;-80
2023/07/15 07:23:35;;;;;;;2.10;1.90;;;25.80;88.60;;;;;;4955640;28;20206;-80
2023/07/15 07:26:02;;;;;;;4.00;1.67;;;25.80;87.80;;;;;;4959185;28;20207;-80
2023/07/15 07:28:41;;;;;;;4.55;1.70;;;25.80;88.70;;;;;;4974731;28;20201;-80
2023/07/15 07:31:09;;;;;;;2.03;1.83;;;25.80;88.60;;;;;;4974069;28;20197;-79
2023/07/15 07:33:41;;;;;;;2.42;1.75;;;25.90;88.10;;;;;;4976232;28;20189;-80
2023/07/15 07:36:09;;;;;;;2.65;1.50;;;25.90;88.40;;;;;;4958601;28;20216;-81
2023/07/15 07:38:36;;;;;;;2.80;1.83;;;25.90;88.90;;;;;;4974627;28;20196;-81
2023/07/15 07:41:05;;;;;;;2.47;1.70;;;25.90;89.20;;;;;;4974688;28;20204;-80
2023/07/15 07:43:33;;;;;;;3.33;1.85;;;25.80;89.10;;;;;;4970229;28;20201;-80
2023/07/15 07:46:01;;;;;;;2.33;2.00;;;25.80;90.00;;;;;;4982362;28;20201;-80
2023/07/15 07:48:29;;;;;;;2.58;1.83;;;25.80;90.10;;;;;;4974262;28;20675;-80
2023/07/15 07:50:59;;;;;;;2.80;2.00;;;25.70;89.90;;;;;;4973541;28;20200;-80
2023/07/15 07:53:26;;;;;;;3.47;1.75;;;25.80;90.20;;;;;;4973963;28;20205;-80
2023/07/15 07:55:54;;;;;;;4.65;2.15;;;25.70;90.50;;;;;;4975163;28;20189;-80
2023/07/15 07:58:24;;;;;;;4.85;1.90;;;25.70;90.70;;;;;;4972937;28;20212;-80
2023/07/15 08:01:03;;;;;;;4.10;2.00;;;25.60;90.40;;;;;;4962893;28;20224;-81
2023/07/15 08:03:30;;;;;;;2.15;1.73;;;25.70;90.90;;;;;;4957264;28;20200;-81
2023/07/15 08:05:59;;;;;;;1.88;1.77;;;25.70;90.70;;;;;;4976153;28;20220;-80
2023/07/15 08:08:47;;;;;;;2.17;1.85;;;25.70;90.70;;;;;;4974331;28;20232;-82
2023/07/15 08:11:15;;;;;;;2.50;1.85;;;25.80;90.40;;;;;;4981776;28;20215;-82
2023/07/15 08:13:42;;;;;;;2.60;2.00;;;25.70;90.70;;;;;;4983403;28;20239;-81
2023/07/15 08:16:28;;;;;;;1.90;1.70;;;25.80;90.60;;;;;;4969060;28;20210;-81
2023/07/15 08:18:57;;;;;;;3.05;2.20;;;25.90;91.00;;;;;;4970947;28;20204;-81
2023/07/15 08:21:27;;;;;;;2.58;1.92;;;25.90;90.60;;;;;;4971165;28;20201;-81
2023/07/15 08:23:54;;;;;;;3.15;2.00;;;25.90;89.90;;;;;;4975403;28;20589;-82
2023/07/15 08:26:23;;;;;;;4.63;2.05;;;25.70;89.30;;;;;;4974324;28;20208;-80
2023/07/15 08:28:50;;;;;;;3.80;2.00;;;25.70;90.10;;;;;;4977592;28;20281;-81
2023/07/15 08:31:21;;;;;;;2.47;1.83;;;25.70;90.00;;;;;;4972119;28;20196;-81
2023/07/15 08:33:48;;;;;;;3.05;1.85;;;25.70;90.60;;;;;;4972071;28;20220;-81
2023/07/15 08:36:16;;;;;;;5.10;2.00;;;25.80;90.40;;;;;;4970839;28;20227;-81
2023/07/15 08:38:45;;;;;;;1.95;1.80;;;25.70;90.20;;;;;;4975317;28;20210;-81
2023/07/15 08:41:24;;;;;;;2.63;1.75;;;25.80;90.50;;;;;;4976295;28;20654;-81
2023/07/15 08:43:51;;;;;;;3.13;1.70;;;25.70;90.60;;;;;;4974574;28;20235;-80
2023/07/15 08:46:26;;;;;;;5.30;2.17;;;25.70;90.80;;;;;;4972914;28;20194;-85
2023/07/15 08:48:54;;;;;;;3.72;2.03;;;25.70;91.30;;;;;;4976293;28;20207;-83
2023/07/15 08:51:23;;;;;;;2.00;1.80;;;25.70;91.70;;;;;;4957033;28;20207;-83
2023/07/15 08:53:53;;;;;;;2.85;2.10;;;25.60;92.60;;;;;;4953216;28;20236;-83
2023/07/15 08:56:32;;;;;;;2.92;1.98;;;25.50;92.50;;;;;;4964704;28;20208;-82
2023/07/15 08:58:59;;;;;;;2.78;2.00;;;25.50;92.70;;;;;;4971346;28;20201;-83
2023/07/15 09:01:26;;;;;;;2.10;1.88;;;25.60;92.80;;;;;;4974403;28;20197;-81
2023/07/15 09:03:54;;;;;;;2.92;1.80;;;25.60;92.80;;;;;;4973960;28;20235;-81
2023/07/15 09:06:22;;;;;;;2.25;1.95;;;25.60;92.90;;;;;;4954871;28;20201;-81
2023/07/15 09:08:52;;;;;;;1.73;1.63;;;25.40;93.10;;;;;;4977249;28;20228;-81
2023/07/15 09:11:20;;;;;;;4.05;1.77;;;25.30;93.80;;;;;;4976006;28;20185;-81
2023/07/15 09:13:47;;;;;;;2.20;1.92;;;25.20;93.70;;;;;;4975800;28;20217;-79
2023/07/15 09:16:15;;;;;;;2.35;1.92;;;25.10;94.20;;;;;;4956067;28;20361;-82
2023/07/15 09:18:44;;;;;;;2.00;1.80;;;25.10;94.70;;;;;;4974431;28;20223;-80
2023/07/15 09:21:21;;;;;;;2.55;1.75;;;25.00;94.80;;;;;;4978955;28;20193;-82
2023/07/15 09:23:48;;;;;;;3.00;2.03;;;24.90;95.10;;;;;;4974574;28;20225;-79
2023/07/15 09:26:40;;;;;;;2.70;2.00;;;24.90;96.30;;;;;;4987406;28;20227;-80
2023/07/15 09:29:10;;;;;;;4.15;2.30;;;24.50;99.90;;;;;;4991069;28;20220;-80
2023/07/15 09:31:39;;;;;;;2.67;2.00;;;24.10;99.90;;;;;;4981926;28;20208;-80
2023/07/15 09:34:07;;;;;;;3.38;1.92;;;23.80;99.90;;;;;;4976023;28;20229;-79
2023/07/15 09:36:34;;;;;;;3.35;2.30;;;23.40;99.90;;;;;;4969142;28;20224;-79
2023/07/15 09:39:12;;;;;;;4.43;2.45;;;23.00;99.90;;;;;;4975016;28;20189;-79
2023/07/15 09:41:43;;;;;;;2.75;2.55;;;22.80;99.90;;;;;;4968730;28;20208;-79
2023/07/15 09:44:11;;;;;;;2.65;2.20;;;22.50;99.90;;;;;;4979353;28;20228;-79
2023/07/15 09:46:41;;;;;;;2.45;2.25;;;22.30;99.90;;;;;;4957866;28;20197;-79
2023/07/15 09:49:09;;;;;;;3.20;2.47;;;22.10;99.90;;;;;;4976127;28;20249;-79
2023/07/15 09:51:36;;;;;;;3.85;2.83;;;21.90;99.90;;;;;;4968321;28;20204;-78
2023/07/15 09:54:32;;;;;;;3.28;2.63;;;21.80;99.90;;;;;;4964505;28;20713;-79
2023/07/15 09:57:04;;;;;;;4.35;2.83;;;21.80;99.90;;;;;;4957321;28;20564;-79
2023/07/15 09:59:36;;;;;;;3.85;2.63;;;21.60;99.90;;;;;;4974696;28;20193;-80
2023/07/15 10:02:10;;;;;;;3.90;2.88;;;21.70;99.90;;;;;;4978856;28;20200;-80
2023/07/15 10:04:44;;;;;;;6.85;3.35;;;21.80;99.90;;;;;;4983951;28;20220;-80
2023/07/15 10:07:17;;;;;;;3.30;3.00;;;22.00;99.90;;;;;;4978457;28;20211;-81
2023/07/15 10:09:45;;;;;;;4.13;3.22;;;22.00;99.90;;;;;;4979771;28;20201;-80
2023/07/15 10:12:19;;;;;;;4.25;2.90;;;21.60;99.90;;;;;;4985372;28;20212;-81
2023/07/15 10:15:03;;;;;;;3.38;2.85;;;21.60;99.90;;;;;;4977577;28;20216;-80
2023/07/15 10:17:35;;;;;;;3.97;3.30;;;21.50;99.90;;;;;;4977224;28;20193;-80
2023/07/15 10:20:14;;;;;;;3.47;3.05;;;21.40;99.90;;;;;;4976062;28;20204;-81
2023/07/15 10:22:42;;;;;;;3.30;3.00;;;21.40;99.90;;;;;;4972259;28;20223;-81
2023/07/15 10:25:11;;;;;;;3.17;2.75;;;21.40;99.90;;;;;;4966642;28;20695;-80
2023/07/15 10:27:40;;;;;;;3.55;2.67;;;21.60;99.90;;;;;;4976538;28;20221;-81
2023/07/15 10:30:19;;;;;;;3.63;2.80;;;21.60;99.90;;;;;;4977148;28;20205;-80
2023/07/15 10:33:09;;;;;;;4.72;3.13;;;21.60;99.90;;;;;;4973919;28;20197;-80
2023/07/15 10:35:51;;;;;;;3.60;3.30;;;21.60;99.90;;;;;;4977969;28;20220;-80
2023/07/15 10:38:27;;;;;;;3.72;2.90;;;21.60;99.90;;;;;;4976894;28;20212;-80
2023/07/15 10:41:01;;;;;;;3.17;2.90;;;21.70;99.90;;;;;;4968083;28;20200;-80
2023/07/15 10:43:41;;;;;;;3.78;3.00;;;21.60;99.90;;;;;;4974346;28;20643;-80
2023/07/15 10:46:10;;;;;;;4.82;3.00;;;21.70;99.90;;;;;;4980085;28;20574;-80
2023/07/15 10:48:39;;;;;;;3.17;2.88;;;21.60;99.90;;;;;;4989267;28;20221;-80
2023/07/15 10:51:08;;;;;;;4.18;2.92;;;21.70;99.90;;;;;;4974536;28;20197;-80
2023/07/15 10:53:36;;;;;;;4.93;3.05;;;21.80;99.90;;;;;;4975008;28;20213;-81
2023/07/15 10:56:05;;;;;;;4.22;3.10;;;21.90;99.90;;;;;;4979854;28;20211;-81
2023/07/15 10:58:34;;;;;;;4.65;3.30;;;22.00;99.90;;;;;;4990184;28;20197;-81
2023/07/15 11:01:04;;;;;;;4.38;2.63;;;22.20;99.90;;;;;;4976641;28;20201;-81
2023/07/15 11:03:33;;;;;;;3.60;2.95;;;22.20;99.90;;;;;;4973628;28;20201;-80
2023/07/15 11:06:02;;;;;;;3.70;3.05;;;22.30;99.90;;;;;;4961383;28;20193;-81
2023/07/15 11:08:35;;;;;;;3.63;2.80;;;22.50;99.90;;;;;;4973968;28;20225;-81
2023/07/15 11:11:04;;;;;;;3.03;2.53;;;22.60;99.90;;;;;;4974253;28;20299;-81
2023/07/15 11:13:36;;;;;;;3.53;2.83;;;22.50;99.90;;;;;;4979444;28;20219;-80
2023/07/15 11:16:05;;;;;;;3.15;2.50;;;22.60;99.90;;;;;;4974694;28;20204;-81
2023/07/15 11:18:32;;;;;;;4.63;2.90;;;22.60;99.90;;;;;;4990230;28;20201;-81
2023/07/15 11:21:01;;;;;;;3.72;2.95;;;22.70;99.90;;;;;;4980906;28;20204;-81
2023/07/15 11:23:30;;;;;;;3.08;2.65;;;22.60;99.90;;;;;;4979098;28;20196;-81
2023/07/15 11:25:58;;;;;;;2.83;2.47;;;22.50;99.90;;;;;;4974796;28;20220;-81
2023/07/15 11:28:33;;;;;;;3.33;2.50;;;22.70;99.90;;;;;;4974021;28;20228;-84
2023/07/15 11:31:00;;;;;;;2.20;2.05;;;22.70;99.90;;;;;;4969170;28;20200;-82
2023/07/15 11:33:29;;;;;;;3.00;2.15;;;22.80;99.90;;;;;;4988932;28;20204;-81
2023/07/15 11:36:02;;;;;;;3.33;2.00;;;22.90;99.90;;;;;;4959209;28;20675;-81
2023/07/15 11:38:39;;;;;;;2.53;2.20;;;23.20;99.90;;;;;;4971604;28;20254;-81
2023/07/15 11:41:07;;;;;;;2.80;2.30;;;23.30;99.90;;;;;;4954745;28;20212;-80
2023/07/15 11:43:38;;;;;;;2.05;1.85;;;23.30;99.90;;;;;;4972337;28;20213;-80
2023/07/15 11:46:05;;;;;;;2.58;2.10;;;23.50;99.90;;;;;;4969132;28;20213;-81
2023/07/15 11:48:34;;;;;;;1.85;1.75;;;23.70;99.90;;;;;;4971557;28;20216;-82
2023/07/15 11:51:05;;;;;;;2.85;2.20;;;23.90;99.90;;;;;;4970777;28;20200;-81
2023/07/15 11:53:37;;;;;;;2.15;1.95;;;23.70;99.90;;;;;;4973385;28;20201;-81
2023/07/15 11:56:05;;;;;;;2.20;2.00;;;23.80;99.90;;;;;;4977616;28;20201;-81
2023/07/15 11:58:41;;;;;;;2.60;2.10;;;23.80;99.90;;;;;;4956991;28;20208;-81
2023/07/15 12:01:12;;;;;;;2.00;1.90;;;23.80;99.90;;;;;;4973694;28;20216;-81
2023/07/15 12:03:42;;;;;;;2.17;1.95;;;23.90;99.90;;;;;;4980646;28;20211;-81
2023/07/15 12:06:17;;;;;;;3.58;1.85;;;24.00;99.90;;;;;;4979081;28;20196;-81
2023/07/15 12:08:58;;;;;;;2.50;2.30;;;24.20;99.90;;;;;;4962655;28;20227;-81
2023/07/15 12:11:26;;;;;;;2.20;2.00;;;24.30;99.90;;;;;;4978145;28;20216;-81
2023/07/15 12:13:53;;;;;;;2.85;2.13;;;24.30;99.90;;;;;;4980910;28;20233;-81
2023/07/15 12:16:22;;;;;;;2.50;2.30;;;24.20;99.90;;;;;;4976795;28;20204;-81
2023/07/15 12:18:52;;;;;;;2.20;2.00;;;24.30;99.90;;;;;;4977347;28;20204;-81
2023/07/15 12:21:20;;;;;;;2.53;2.33;;;24.30;99.90;;;;;;4977016;28;20210;-81
2023/07/15 12:23:47;;;;;;;2.33;1.98;;;24.40;99.90;;;;;;4976609;28;20224;-81
2023/07/15 12:26:15;;;;;;;2.90;2.58;;;24.30;99.90;;;;;;4976013;28;20193;-81
2023/07/15 12:28:42;;;;;;;2.10;1.90;;;24.30;99.90;;;;;;4974621;28;20237;-81
2023/07/15 12:31:10;;;;;;;2.63;2.33;;;24.40;99.90;;;;;;4951650;28;20205;-81
2023/07/15 12:33:37;;;;;;;2.83;2.50;;;24.30;99.90;;;;;;4978814;28;20197;-81
2023/07/15 12:36:06;;;;;;;2.88;2.45;;;24.20;99.90;;;;;;4979069;28;20200;-81
2023/07/15 12:38:35;;;;;;;2.50;2.30;;;24.10;99.90;;;;;;4977137;28;20212;-81
2023/07/15 12:41:04;;;;;;;2.95;2.50;;;24.10;99.90;;;;;;4971099;28;20205;-81
2023/07/15 12:43:32;;;;;;;2.72;2.50;;;24.00;99.90;;;;;;4962317;28;20201;-81
2023/07/15 12:46:00;;;;;;;2.67;2.30;;;23.90;99.90;;;;;;4977844;28;20213;-80
2023/07/15 12:48:28;;;;;;;2.80;2.38;;;23.90;99.90;;;;;;4979655;28;20205;-81
2023/07/15 12:50:56;;;;;;;3.40;3.10;;;23.80;99.90;;;;;;4981261;28;20205;-82
2023/07/15 12:53:25;;;;;;;2.60;2.40;;;23.80;99.90;;;;;;4978200;28;20201;-82
2023/07/15 12:55:54;;;;;;;2.90;2.60;;;23.80;99.90;;;;;;4977612;28;20554;-81
2023/07/15 12:58:22;;;;;;;3.60;2.58;;;23.90;99.90;;;;;;4980628;28;20189;-81
2023/07/15 13:00:50;;;;;;;3.45;2.75;;;23.80;99.90;;;;;;4977888;28;20197;-81